sensor_id;sensor_type;location;lat;lon;timestamp;temperature;humidity
20726;DHT22;10524;48.132;8.518;2022-07-09T00:01:26;9.30;99.90
20726;DHT22;10524;48.132;8.518;2022-07-09T00:03:52;9.20;99.90
20726;DHT22;10524;48.132;8.518;2022-07-09T00:06:18;9.00;99.90
20726;DHT22;10524;48.132;8.518;2022-07-09T00:08:44;8.90;99.90
20726;DHT22;10524;48.132;8.518;2022-07-09T00:11:10;8.80;99.90
20726;DHT22;10524;48.132;8.518;2022-07-09T00:13:35;8.80;99.90
20726;DHT22;10524;48.132;8.518;2022-07-09T00:16:01;8.80;99.90
20726;DHT22;10524;48.132;8.518;2022-07-09T00:18:27;8.80;99.90
20726;DHT22;10524;48.132;8.518;2022-07-09T00:20:54;8.70;99.90
20726;DHT22;10524;48.132;8.518;2022-07-09T00:23:20;8.70;99.90
20726;DHT22;10524;48.132;8.518;2022-07-09T00:25:46;8.70;99.90
20726;DHT22;10524;48.132;8.518;2022-07-09T00:28:12;8.70;99.90
20726;DHT22;10524;48.132;8.518;2022-07-09T00:30:37;8.80;99.90
20726;DHT22;10524;48.132;8.518;2022-07-09T00:33:03;8.70;99.90
20726;DHT22;10524;48.132;8.518;2022-07-09T00:35:29;8.60;99.90
20726;DHT22;10524;48.132;8.518;2022-07-09T00:37:54;8.50;99.90
20726;DHT22;10524;48.132;8.518;2022-07-09T00:40:20;8.40;99.90
20726;DHT22;10524;48.132;8.518;2022-07-09T00:42:46;8.40;99.90
20726;DHT22;10524;48.132;8.518;2022-07-09T00:45:11;8.30;99.90
20726;DHT22;10524;48.132;8.518;2022-07-09T00:47:37;8.20;99.90
20726;DHT22;10524;48.132;8.518;2022-07-09T00:50:03;8.20;99.90
20726;DHT22;10524;48.132;8.518;2022-07-09T00:52:31;8.10;99.90
20726;DHT22;10524;48.132;8.518;2022-07-09T00:55:00;8.10;99.90
20726;DHT22;10524;48.132;8.518;2022-07-09T00:57:27;8.00;99.90
20726;DHT22;10524;48.132;8.518;2022-07-09T00:59:53;8.00;99.90
20726;DHT22;10524;48.132;8.518;2022-07-09T01:02:22;7.90;99.90
20726;DHT22;10524;48.132;8.518;2022-07-09T01:04:48;7.90;99.90
20726;DHT22;10524;48.132;8.518;2022-07-09T01:07:13;8.10;99.90
20726;DHT22;10524;48.132;8.518;2022-07-09T01:09:39;8.10;99.90
20726;DHT22;10524;48.132;8.518;2022-07-09T01:12:06;8.20;99.90
20726;DHT22;10524;48.132;8.518;2022-07-09T01:14:32;8.30;99.90
20726;DHT22;10524;48.132;8.518;2022-07-09T01:17:03;8.20;99.90
20726;DHT22;10524;48.132;8.518;2022-07-09T01:19:31;8.20;99.90
20726;DHT22;10524;48.132;8.518;2022-07-09T01:21:57;8.10;99.90
20726;DHT22;10524;48.132;8.518;2022-07-09T01:24:23;8.00;99.90
20726;DHT22;10524;48.132;8.518;2022-07-09T01:26:51;7.90;99.90
20726;DHT22;10524;48.132;8.518;2022-07-09T01:29:17;7.90;99.90
20726;DHT22;10524;48.132;8.518;2022-07-09T01:31:43;7.90;99.90
20726;DHT22;10524;48.132;8.518;2022-07-09T01:34:08;7.80;99.90
20726;DHT22;10524;48.132;8.518;2022-07-09T01:36:34;7.80;99.90
20726;DHT22;10524;48.132;8.518;2022-07-09T01:39:00;7.70;99.90
20726;DHT22;10524;48.132;8.518;2022-07-09T01:41:25;7.60;99.90
20726;DHT22;10524;48.132;8.518;2022-07-09T01:43:51;7.60;99.90
20726;DHT22;10524;48.132;8.518;2022-07-09T01:46:17;7.50;99.90
20726;DHT22;10524;48.132;8.518;2022-07-09T01:48:42;7.40;99.90
20726;DHT22;10524;48.132;8.518;2022-07-09T01:51:12;7.40;99.90
20726;DHT22;10524;48.132;8.518;2022-07-09T01:53:38;7.40;99.90
20726;DHT22;10524;48.132;8.518;2022-07-09T01:56:09;7.40;99.90
20726;DHT22;10524;48.132;8.518;2022-07-09T01:58:35;7.40;99.90
20726;DHT22;10524;48.132;8.518;2022-07-09T02:01:02;7.40;99.90
20726;DHT22;10524;48.132;8.518;2022-07-09T02:03:28;7.40;99.90
20726;DHT22;10524;48.132;8.518;2022-07-09T02:05:53;7.30;99.90
20726;DHT22;10524;48.132;8.518;2022-07-09T02:08:19;7.30;99.90
20726;DHT22;10524;48.132;8.518;2022-07-09T02:10:45;7.30;99.90
20726;DHT22;10524;48.132;8.518;2022-07-09T02:13:11;7.20;99.90
20726;DHT22;10524;48.132;8.518;2022-07-09T02:15:37;7.30;99.90
20726;DHT22;10524;48.132;8.518;2022-07-09T02:18:03;7.30;99.90
20726;DHT22;10524;48.132;8.518;2022-07-09T02:20:30;7.40;99.90
20726;DHT22;10524;48.132;8.518;2022-07-09T02:22:55;7.40;99.90
20726;DHT22;10524;48.132;8.518;2022-07-09T02:25:21;7.30;99.90
20726;DHT22;10524;48.132;8.518;2022-07-09T02:27:47;7.30;99.90
20726;DHT22;10524;48.132;8.518;2022-07-09T02:30:13;7.30;99.90
20726;DHT22;10524;48.132;8.518;2022-07-09T02:32:39;7.40;99.90
20726;DHT22;10524;48.132;8.518;2022-07-09T02:35:05;7.40;99.90
20726;DHT22;10524;48.132;8.518;2022-07-09T02:37:31;7.40;99.90
20726;DHT22;10524;48.132;8.518;2022-07-09T02:39:57;7.20;99.90
20726;DHT22;10524;48.132;8.518;2022-07-09T02:42:23;7.20;99.90
20726;DHT22;10524;48.132;8.518;2022-07-09T02:44:48;7.10;99.90
20726;DHT22;10524;48.132;8.518;2022-07-09T02:47:14;7.10;99.90
20726;DHT22;10524;48.132;8.518;2022-07-09T02:49:40;7.00;99.90
20726;DHT22;10524;48.132;8.518;2022-07-09T02:52:06;6.90;99.90
20726;DHT22;10524;48.132;8.518;2022-07-09T02:54:31;6.80;99.90
20726;DHT22;10524;48.132;8.518;2022-07-09T02:56:57;6.90;99.90
20726;DHT22;10524;48.132;8.518;2022-07-09T02:59:23;7.00;99.90
20726;DHT22;10524;48.132;8.518;2022-07-09T03:01:49;7.00;99.90
20726;DHT22;10524;48.132;8.518;2022-07-09T03:04:14;7.00;99.90
20726;DHT22;10524;48.132;8.518;2022-07-09T03:06:40;7.00;99.90
20726;DHT22;10524;48.132;8.518;2022-07-09T03:09:05;6.90;99.90
20726;DHT22;10524;48.132;8.518;2022-07-09T03:11:32;6.80;99.90
20726;DHT22;10524;48.132;8.518;2022-07-09T03:13:57;6.70;99.90
20726;DHT22;10524;48.132;8.518;2022-07-09T03:16:23;6.70;99.90
20726;DHT22;10524;48.132;8.518;2022-07-09T03:18:48;6.50;99.90
20726;DHT22;10524;48.132;8.518;2022-07-09T03:21:14;6.40;99.90
20726;DHT22;10524;48.132;8.518;2022-07-09T03:23:40;6.60;99.90
20726;DHT22;10524;48.132;8.518;2022-07-09T03:26:06;6.60;99.90
20726;DHT22;10524;48.132;8.518;2022-07-09T03:28:33;6.70;99.90
20726;DHT22;10524;48.132;8.518;2022-07-09T03:30:59;6.80;99.90
20726;DHT22;10524;48.132;8.518;2022-07-09T03:33:24;6.80;99.90
20726;DHT22;10524;48.132;8.518;2022-07-09T03:35:50;6.80;99.90
20726;DHT22;10524;48.132;8.518;2022-07-09T03:38:16;6.90;99.90
20726;DHT22;10524;48.132;8.518;2022-07-09T03:40:41;6.80;99.90
20726;DHT22;10524;48.132;8.518;2022-07-09T03:43:07;6.80;99.90
20726;DHT22;10524;48.132;8.518;2022-07-09T03:45:33;6.70;99.90
20726;DHT22;10524;48.132;8.518;2022-07-09T03:47:58;6.60;99.90
20726;DHT22;10524;48.132;8.518;2022-07-09T03:50:24;6.60;99.90
20726;DHT22;10524;48.132;8.518;2022-07-09T03:52:50;6.50;99.90
20726;DHT22;10524;48.132;8.518;2022-07-09T03:55:16;6.50;99.90
20726;DHT22;10524;48.132;8.518;2022-07-09T03:57:41;6.50;99.90
20726;DHT22;10524;48.132;8.518;2022-07-09T04:00:08;6.70;99.90
20726;DHT22;10524;48.132;8.518;2022-07-09T04:02:34;6.70;99.90
20726;DHT22;10524;48.132;8.518;2022-07-09T04:04:59;6.80;99.90
20726;DHT22;10524;48.132;8.518;2022-07-09T04:07:25;6.80;99.90
20726;DHT22;10524;48.132;8.518;2022-07-09T04:09:53;6.90;99.90
20726;DHT22;10524;48.132;8.518;2022-07-09T04:12:20;7.00;99.90
20726;DHT22;10524;48.132;8.518;2022-07-09T04:14:45;7.20;99.90
20726;DHT22;10524;48.132;8.518;2022-07-09T04:17:11;7.50;99.90
20726;DHT22;10524;48.132;8.518;2022-07-09T04:19:37;7.80;99.90
20726;DHT22;10524;48.132;8.518;2022-07-09T04:22:03;8.30;99.90
20726;DHT22;10524;48.132;8.518;2022-07-09T04:24:30;8.90;99.90
20726;DHT22;10524;48.132;8.518;2022-07-09T04:26:56;9.60;99.90
20726;DHT22;10524;48.132;8.518;2022-07-09T04:29:22;10.10;99.90
20726;DHT22;10524;48.132;8.518;2022-07-09T04:31:47;10.70;99.90
20726;DHT22;10524;48.132;8.518;2022-07-09T04:34:13;11.10;99.90
20726;DHT22;10524;48.132;8.518;2022-07-09T04:36:38;11.70;99.90
20726;DHT22;10524;48.132;8.518;2022-07-09T04:39:04;12.40;99.90
20726;DHT22;10524;48.132;8.518;2022-07-09T04:41:30;13.30;99.90
20726;DHT22;10524;48.132;8.518;2022-07-09T04:43:56;14.00;99.90
20726;DHT22;10524;48.132;8.518;2022-07-09T04:46:21;14.60;99.90
20726;DHT22;10524;48.132;8.518;2022-07-09T04:48:48;14.90;99.90
20726;DHT22;10524;48.132;8.518;2022-07-09T04:51:14;15.40;99.90
20726;DHT22;10524;48.132;8.518;2022-07-09T04:53:39;15.90;99.90
20726;DHT22;10524;48.132;8.518;2022-07-09T04:56:05;16.00;99.90
20726;DHT22;10524;48.132;8.518;2022-07-09T04:58:32;16.10;99.90
20726;DHT22;10524;48.132;8.518;2022-07-09T05:00:58;16.20;99.90
20726;DHT22;10524;48.132;8.518;2022-07-09T05:03:24;16.20;99.90
20726;DHT22;10524;48.132;8.518;2022-07-09T05:05:50;16.10;99.90
20726;DHT22;10524;48.132;8.518;2022-07-09T05:08:17;16.00;99.90
20726;DHT22;10524;48.132;8.518;2022-07-09T05:10:43;16.00;99.90
20726;DHT22;10524;48.132;8.518;2022-07-09T05:13:08;16.50;99.90
20726;DHT22;10524;48.132;8.518;2022-07-09T05:15:34;16.30;99.90
20726;DHT22;10524;48.132;8.518;2022-07-09T05:17:59;16.40;99.90
20726;DHT22;10524;48.132;8.518;2022-07-09T05:20:25;16.70;99.90
20726;DHT22;10524;48.132;8.518;2022-07-09T05:22:51;17.50;99.90
20726;DHT22;10524;48.132;8.518;2022-07-09T05:25:17;18.30;99.90
20726;DHT22;10524;48.132;8.518;2022-07-09T05:27:44;19.10;99.90
20726;DHT22;10524;48.132;8.518;2022-07-09T05:30:11;20.20;99.90
20726;DHT22;10524;48.132;8.518;2022-07-09T05:32:38;20.20;99.90
20726;DHT22;10524;48.132;8.518;2022-07-09T05:35:04;19.90;99.90
20726;DHT22;10524;48.132;8.518;2022-07-09T05:37:30;19.90;99.90
20726;DHT22;10524;48.132;8.518;2022-07-09T05:39:59;20.20;99.90
20726;DHT22;10524;48.132;8.518;2022-07-09T05:42:25;20.90;99.90
20726;DHT22;10524;48.132;8.518;2022-07-09T05:44:51;21.50;99.90
20726;DHT22;10524;48.132;8.518;2022-07-09T05:47:17;21.60;99.90
20726;DHT22;10524;48.132;8.518;2022-07-09T05:49:42;21.90;99.90
20726;DHT22;10524;48.132;8.518;2022-07-09T05:52:08;21.80;99.90
20726;DHT22;10524;48.132;8.518;2022-07-09T05:54:33;22.00;99.90
20726;DHT22;10524;48.132;8.518;2022-07-09T05:56:59;22.70;99.90
20726;DHT22;10524;48.132;8.518;2022-07-09T05:59:25;23.30;99.90
20726;DHT22;10524;48.132;8.518;2022-07-09T06:01:50;23.60;99.90
20726;DHT22;10524;48.132;8.518;2022-07-09T06:04:16;24.10;99.90
20726;DHT22;10524;48.132;8.518;2022-07-09T06:06:42;24.50;99.90
20726;DHT22;10524;48.132;8.518;2022-07-09T06:09:07;24.20;99.90
20726;DHT22;10524;48.132;8.518;2022-07-09T06:11:33;23.80;99.90
20726;DHT22;10524;48.132;8.518;2022-07-09T06:13:59;25.00;99.90
20726;DHT22;10524;48.132;8.518;2022-07-09T06:16:24;25.60;99.90
20726;DHT22;10524;48.132;8.518;2022-07-09T06:18:50;26.40;99.90
20726;DHT22;10524;48.132;8.518;2022-07-09T06:21:15;26.80;99.90
20726;DHT22;10524;48.132;8.518;2022-07-09T06:23:41;26.90;99.90
20726;DHT22;10524;48.132;8.518;2022-07-09T06:26:07;27.50;99.70
20726;DHT22;10524;48.132;8.518;2022-07-09T06:28:36;28.00;99.30
20726;DHT22;10524;48.132;8.518;2022-07-09T06:31:01;27.80;99.60
20726;DHT22;10524;48.132;8.518;2022-07-09T06:33:27;27.80;99.20
20726;DHT22;10524;48.132;8.518;2022-07-09T06:35:53;28.20;98.70
20726;DHT22;10524;48.132;8.518;2022-07-09T06:38:18;28.40;98.20
20726;DHT22;10524;48.132;8.518;2022-07-09T06:40:44;28.50;98.20
20726;DHT22;10524;48.132;8.518;2022-07-09T06:43:10;28.20;97.50
20726;DHT22;10524;48.132;8.518;2022-07-09T06:45:38;28.50;96.30
20726;DHT22;10524;48.132;8.518;2022-07-09T06:48:04;28.50;96.10
20726;DHT22;10524;48.132;8.518;2022-07-09T06:50:29;28.40;95.80
20726;DHT22;10524;48.132;8.518;2022-07-09T06:52:55;29.10;95.30
20726;DHT22;10524;48.132;8.518;2022-07-09T06:55:21;29.40;95.40
20726;DHT22;10524;48.132;8.518;2022-07-09T06:57:47;29.00;95.10
20726;DHT22;10524;48.132;8.518;2022-07-09T07:00:13;29.10;95.10
20726;DHT22;10524;48.132;8.518;2022-07-09T07:02:39;29.40;94.60
20726;DHT22;10524;48.132;8.518;2022-07-09T07:05:05;29.30;94.60
20726;DHT22;10524;48.132;8.518;2022-07-09T07:07:31;28.90;94.30
20726;DHT22;10524;48.132;8.518;2022-07-09T07:09:57;28.40;94.50
20726;DHT22;10524;48.132;8.518;2022-07-09T07:12:22;29.20;94.30
20726;DHT22;10524;48.132;8.518;2022-07-09T07:14:48;29.40;93.30
20726;DHT22;10524;48.132;8.518;2022-07-09T07:17:14;27.80;93.70
20726;DHT22;10524;48.132;8.518;2022-07-09T07:19:39;28.00;94.00
20726;DHT22;10524;48.132;8.518;2022-07-09T07:22:05;28.70;92.80
20726;DHT22;10524;48.132;8.518;2022-07-09T07:24:31;28.40;92.80
20726;DHT22;10524;48.132;8.518;2022-07-09T07:26:57;28.20;94.20
20726;DHT22;10524;48.132;8.518;2022-07-09T07:29:23;27.90;94.50
20726;DHT22;10524;48.132;8.518;2022-07-09T07:31:49;27.70;94.30
20726;DHT22;10524;48.132;8.518;2022-07-09T07:34:15;28.10;94.50
20726;DHT22;10524;48.132;8.518;2022-07-09T07:36:42;27.50;95.30
20726;DHT22;10524;48.132;8.518;2022-07-09T07:39:07;27.60;94.90
20726;DHT22;10524;48.132;8.518;2022-07-09T07:41:33;27.30;95.20
20726;DHT22;10524;48.132;8.518;2022-07-09T07:43:59;27.00;95.30
20726;DHT22;10524;48.132;8.518;2022-07-09T07:46:24;27.00;95.30
20726;DHT22;10524;48.132;8.518;2022-07-09T07:48:50;27.40;95.10
20726;DHT22;10524;48.132;8.518;2022-07-09T07:51:16;27.70;95.00
20726;DHT22;10524;48.132;8.518;2022-07-09T07:53:41;26.70;95.10
20726;DHT22;10524;48.132;8.518;2022-07-09T07:56:08;25.40;95.90
20726;DHT22;10524;48.132;8.518;2022-07-09T07:58:34;24.20;96.90
20726;DHT22;10524;48.132;8.518;2022-07-09T08:01:00;23.90;97.80
20726;DHT22;10524;48.132;8.518;2022-07-09T08:03:26;24.90;97.40
20726;DHT22;10524;48.132;8.518;2022-07-09T08:05:52;26.80;96.30
20726;DHT22;10524;48.132;8.518;2022-07-09T08:08:17;27.20;95.50
20726;DHT22;10524;48.132;8.518;2022-07-09T08:10:47;28.70;95.00
20726;DHT22;10524;48.132;8.518;2022-07-09T08:13:14;30.60;94.10
20726;DHT22;10524;48.132;8.518;2022-07-09T08:15:41;31.60;92.60
20726;DHT22;10524;48.132;8.518;2022-07-09T08:18:07;31.90;92.40
20726;DHT22;10524;48.132;8.518;2022-07-09T08:20:40;31.30;91.70
20726;DHT22;10524;48.132;8.518;2022-07-09T08:23:06;29.90;92.60
20726;DHT22;10524;48.132;8.518;2022-07-09T08:25:32;30.10;92.60
20726;DHT22;10524;48.132;8.518;2022-07-09T08:27:58;30.30;92.20
20726;DHT22;10524;48.132;8.518;2022-07-09T08:30:24;31.20;91.50
20726;DHT22;10524;48.132;8.518;2022-07-09T08:32:49;31.70;90.90
20726;DHT22;10524;48.132;8.518;2022-07-09T08:35:15;31.90;91.00
20726;DHT22;10524;48.132;8.518;2022-07-09T08:37:41;32.90;90.80
20726;DHT22;10524;48.132;8.518;2022-07-09T08:40:11;34.50;90.00
20726;DHT22;10524;48.132;8.518;2022-07-09T08:42:37;34.60;88.60
20726;DHT22;10524;48.132;8.518;2022-07-09T08:45:07;33.80;88.30
20726;DHT22;10524;48.132;8.518;2022-07-09T08:47:34;31.50;90.10
20726;DHT22;10524;48.132;8.518;2022-07-09T08:50:01;30.30;91.10
20726;DHT22;10524;48.132;8.518;2022-07-09T08:52:27;29.20;91.30
20726;DHT22;10524;48.132;8.518;2022-07-09T08:54:53;29.80;91.20
20726;DHT22;10524;48.132;8.518;2022-07-09T08:57:19;30.20;91.30
20726;DHT22;10524;48.132;8.518;2022-07-09T08:59:45;29.70;91.40
20726;DHT22;10524;48.132;8.518;2022-07-09T09:02:11;29.60;91.60
20726;DHT22;10524;48.132;8.518;2022-07-09T09:04:39;29.90;92.00
20726;DHT22;10524;48.132;8.518;2022-07-09T09:07:20;31.50;91.20
20726;DHT22;10524;48.132;8.518;2022-07-09T09:09:49;32.40;89.80
20726;DHT22;10524;48.132;8.518;2022-07-09T09:12:14;31.80;90.70
20726;DHT22;10524;48.132;8.518;2022-07-09T09:14:48;31.40;90.20
20726;DHT22;10524;48.132;8.518;2022-07-09T09:17:15;30.10;90.10
20726;DHT22;10524;48.132;8.518;2022-07-09T09:19:41;30.20;90.90
20726;DHT22;10524;48.132;8.518;2022-07-09T09:22:07;29.10;91.90
20726;DHT22;10524;48.132;8.518;2022-07-09T09:24:34;29.90;91.00
20726;DHT22;10524;48.132;8.518;2022-07-09T09:27:01;31.00;90.10
20726;DHT22;10524;48.132;8.518;2022-07-09T09:29:27;31.60;89.60
20726;DHT22;10524;48.132;8.518;2022-07-09T09:31:54;30.40;90.10
20726;DHT22;10524;48.132;8.518;2022-07-09T09:34:20;30.60;90.40
20726;DHT22;10524;48.132;8.518;2022-07-09T09:36:47;31.30;89.60
20726;DHT22;10524;48.132;8.518;2022-07-09T09:41:49;33.00;87.50
20726;DHT22;10524;48.132;8.518;2022-07-09T09:44:37;33.50;87.40
20726;DHT22;10524;48.132;8.518;2022-07-09T09:47:06;33.80;87.10
20726;DHT22;10524;48.132;8.518;2022-07-09T09:49:34;33.50;86.20
20726;DHT22;10524;48.132;8.518;2022-07-09T09:52:10;34.10;85.80
20726;DHT22;10524;48.132;8.518;2022-07-09T09:54:37;34.10;84.60
20726;DHT22;10524;48.132;8.518;2022-07-09T09:57:10;34.20;84.20
20726;DHT22;10524;48.132;8.518;2022-07-09T09:59:40;34.50;83.30
20726;DHT22;10524;48.132;8.518;2022-07-09T10:02:08;34.30;83.80
20726;DHT22;10524;48.132;8.518;2022-07-09T10:04:42;35.30;82.30
20726;DHT22;10524;48.132;8.518;2022-07-09T10:07:15;35.40;83.30
20726;DHT22;10524;48.132;8.518;2022-07-09T10:09:53;34.50;85.10
20726;DHT22;10524;48.132;8.518;2022-07-09T10:12:29;34.30;83.00
20726;DHT22;10524;48.132;8.518;2022-07-09T10:14:55;32.80;85.80
20726;DHT22;10524;48.132;8.518;2022-07-09T10:17:23;32.50;86.00
20726;DHT22;10524;48.132;8.518;2022-07-09T10:19:57;32.40;87.90
20726;DHT22;10524;48.132;8.518;2022-07-09T10:22:44;32.70;86.50
20726;DHT22;10524;48.132;8.518;2022-07-09T10:25:23;30.40;87.10
20726;DHT22;10524;48.132;8.518;2022-07-09T10:27:50;31.10;87.70
20726;DHT22;10524;48.132;8.518;2022-07-09T10:30:32;32.30;85.40
20726;DHT22;10524;48.132;8.518;2022-07-09T10:35:45;34.30;82.40
20726;DHT22;10524;48.132;8.518;2022-07-09T10:38:12;35.20;81.20
20726;DHT22;10524;48.132;8.518;2022-07-09T10:40:43;36.00;81.30
20726;DHT22;10524;48.132;8.518;2022-07-09T10:43:10;35.90;81.20
20726;DHT22;10524;48.132;8.518;2022-07-09T10:48:06;33.40;82.80
20726;DHT22;10524;48.132;8.518;2022-07-09T10:50:35;34.20;82.20
20726;DHT22;10524;48.132;8.518;2022-07-09T10:53:02;36.10;81.50
20726;DHT22;10524;48.132;8.518;2022-07-09T10:55:30;36.50;79.30
20726;DHT22;10524;48.132;8.518;2022-07-09T10:57:56;36.20;80.60
20726;DHT22;10524;48.132;8.518;2022-07-09T11:00:24;37.20;79.50
20726;DHT22;10524;48.132;8.518;2022-07-09T11:03:00;37.20;79.30
20726;DHT22;10524;48.132;8.518;2022-07-09T11:05:33;36.80;79.30
20726;DHT22;10524;48.132;8.518;2022-07-09T11:08:07;36.50;78.70
20726;DHT22;10524;48.132;8.518;2022-07-09T11:10:38;36.30;78.80
20726;DHT22;10524;48.132;8.518;2022-07-09T11:13:05;35.90;79.80
20726;DHT22;10524;48.132;8.518;2022-07-09T11:15:33;35.90;79.30
20726;DHT22;10524;48.132;8.518;2022-07-09T11:18:09;33.50;80.10
20726;DHT22;10524;48.132;8.518;2022-07-09T11:20:42;32.80;82.30
20726;DHT22;10524;48.132;8.518;2022-07-09T11:23:12;32.40;82.90
20726;DHT22;10524;48.132;8.518;2022-07-09T11:25:38;30.40;83.90
20726;DHT22;10524;48.132;8.518;2022-07-09T11:28:07;31.30;83.70
20726;DHT22;10524;48.132;8.518;2022-07-09T11:30:33;32.80;83.70
20726;DHT22;10524;48.132;8.518;2022-07-09T11:32:59;34.10;81.20
20726;DHT22;10524;48.132;8.518;2022-07-09T11:35:33;33.90;81.50
20726;DHT22;10524;48.132;8.518;2022-07-09T11:38:04;32.70;82.60
20726;DHT22;10524;48.132;8.518;2022-07-09T11:40:34;32.20;83.10
20726;DHT22;10524;48.132;8.518;2022-07-09T11:43:00;32.30;82.20
20726;DHT22;10524;48.132;8.518;2022-07-09T11:45:27;33.20;81.50
20726;DHT22;10524;48.132;8.518;2022-07-09T11:48:09;34.40;80.50
20726;DHT22;10524;48.132;8.518;2022-07-09T11:50:42;35.90;78.30
20726;DHT22;10524;48.132;8.518;2022-07-09T11:53:22;36.90;78.10
20726;DHT22;10524;48.132;8.518;2022-07-09T11:56:01;36.80;76.00
20726;DHT22;10524;48.132;8.518;2022-07-09T11:58:28;36.80;75.10
20726;DHT22;10524;48.132;8.518;2022-07-09T12:00:53;36.70;74.90
20726;DHT22;10524;48.132;8.518;2022-07-09T12:03:27;37.20;74.10
20726;DHT22;10524;48.132;8.518;2022-07-09T12:05:53;37.20;74.30
20726;DHT22;10524;48.132;8.518;2022-07-09T12:08:27;37.30;74.30
20726;DHT22;10524;48.132;8.518;2022-07-09T12:10:54;36.90;74.20
20726;DHT22;10524;48.132;8.518;2022-07-09T12:13:20;36.20;76.20
20726;DHT22;10524;48.132;8.518;2022-07-09T12:15:46;34.90;78.20
20726;DHT22;10524;48.132;8.518;2022-07-09T12:18:12;35.30;77.20
20726;DHT22;10524;48.132;8.518;2022-07-09T12:20:38;34.80;77.10
20726;DHT22;10524;48.132;8.518;2022-07-09T12:23:04;34.30;77.50
20726;DHT22;10524;48.132;8.518;2022-07-09T12:25:29;34.40;76.80
20726;DHT22;10524;48.132;8.518;2022-07-09T12:27:55;33.90;78.00
20726;DHT22;10524;48.132;8.518;2022-07-09T12:30:22;33.50;78.40
20726;DHT22;10524;48.132;8.518;2022-07-09T12:32:48;33.90;79.40
20726;DHT22;10524;48.132;8.518;2022-07-09T12:35:14;34.30;79.20
20726;DHT22;10524;48.132;8.518;2022-07-09T12:37:41;35.40;76.90
20726;DHT22;10524;48.132;8.518;2022-07-09T12:40:10;36.00;77.60
20726;DHT22;10524;48.132;8.518;2022-07-09T12:42:44;35.30;76.40
20726;DHT22;10524;48.132;8.518;2022-07-09T12:45:10;35.50;77.60
20726;DHT22;10524;48.132;8.518;2022-07-09T12:47:38;36.10;76.00
20726;DHT22;10524;48.132;8.518;2022-07-09T12:50:05;35.80;76.00
20726;DHT22;10524;48.132;8.518;2022-07-09T12:52:32;35.30;76.90
20726;DHT22;10524;48.132;8.518;2022-07-09T12:55:00;34.30;77.90
20726;DHT22;10524;48.132;8.518;2022-07-09T12:57:27;33.40;78.00
20726;DHT22;10524;48.132;8.518;2022-07-09T12:59:54;33.50;79.20
20726;DHT22;10524;48.132;8.518;2022-07-09T13:02:29;32.90;78.90
20726;DHT22;10524;48.132;8.518;2022-07-09T13:04:59;31.50;79.80
20726;DHT22;10524;48.132;8.518;2022-07-09T13:07:25;30.50;80.60
20726;DHT22;10524;48.132;8.518;2022-07-09T13:09:51;30.10;81.60
20726;DHT22;10524;48.132;8.518;2022-07-09T13:12:18;29.70;81.70
20726;DHT22;10524;48.132;8.518;2022-07-09T13:14:44;28.90;83.90
20726;DHT22;10524;48.132;8.518;2022-07-09T13:17:10;29.10;84.90
20726;DHT22;10524;48.132;8.518;2022-07-09T13:19:37;30.30;83.30
20726;DHT22;10524;48.132;8.518;2022-07-09T13:22:03;29.20;83.90
20726;DHT22;10524;48.132;8.518;2022-07-09T13:24:28;27.70;85.20
20726;DHT22;10524;48.132;8.518;2022-07-09T13:26:54;27.70;85.50
20726;DHT22;10524;48.132;8.518;2022-07-09T13:29:20;28.10;85.70
20726;DHT22;10524;48.132;8.518;2022-07-09T13:31:46;29.20;85.80
20726;DHT22;10524;48.132;8.518;2022-07-09T13:34:11;30.70;83.80
20726;DHT22;10524;48.132;8.518;2022-07-09T13:36:37;30.80;84.70
20726;DHT22;10524;48.132;8.518;2022-07-09T13:39:03;31.50;81.40
20726;DHT22;10524;48.132;8.518;2022-07-09T13:41:28;31.80;82.10
20726;DHT22;10524;48.132;8.518;2022-07-09T13:43:54;31.00;81.90
20726;DHT22;10524;48.132;8.518;2022-07-09T13:46:20;32.90;80.20
20726;DHT22;10524;48.132;8.518;2022-07-09T13:48:46;32.60;80.20
20726;DHT22;10524;48.132;8.518;2022-07-09T13:51:11;32.40;81.10
20726;DHT22;10524;48.132;8.518;2022-07-09T13:53:37;33.20;79.90
20726;DHT22;10524;48.132;8.518;2022-07-09T13:56:03;34.10;78.60
20726;DHT22;10524;48.132;8.518;2022-07-09T13:58:29;34.40;76.80
20726;DHT22;10524;48.132;8.518;2022-07-09T14:00:57;32.50;78.40
20726;DHT22;10524;48.132;8.518;2022-07-09T14:03:22;30.80;80.30
20726;DHT22;10524;48.132;8.518;2022-07-09T14:05:48;29.80;82.20
20726;DHT22;10524;48.132;8.518;2022-07-09T14:08:14;29.20;83.70
20726;DHT22;10524;48.132;8.518;2022-07-09T14:10:40;29.60;84.60
20726;DHT22;10524;48.132;8.518;2022-07-09T14:13:05;31.70;82.90
20726;DHT22;10524;48.132;8.518;2022-07-09T14:15:31;31.20;81.30
20726;DHT22;10524;48.132;8.518;2022-07-09T14:17:59;32.30;82.00
20726;DHT22;10524;48.132;8.518;2022-07-09T14:20:25;33.20;81.00
20726;DHT22;10524;48.132;8.518;2022-07-09T14:22:51;34.20;79.20
20726;DHT22;10524;48.132;8.518;2022-07-09T14:25:17;32.80;80.90
20726;DHT22;10524;48.132;8.518;2022-07-09T14:27:42;31.80;81.20
20726;DHT22;10524;48.132;8.518;2022-07-09T14:30:08;30.90;82.10
20726;DHT22;10524;48.132;8.518;2022-07-09T14:32:34;30.70;82.30
20726;DHT22;10524;48.132;8.518;2022-07-09T14:35:00;29.90;83.30
20726;DHT22;10524;48.132;8.518;2022-07-09T14:37:26;28.60;85.40
20726;DHT22;10524;48.132;8.518;2022-07-09T14:39:53;27.80;86.60
20726;DHT22;10524;48.132;8.518;2022-07-09T14:42:19;27.40;88.00
20726;DHT22;10524;48.132;8.518;2022-07-09T14:44:45;26.90;88.80
20726;DHT22;10524;48.132;8.518;2022-07-09T14:47:10;26.60;90.20
20726;DHT22;10524;48.132;8.518;2022-07-09T14:49:36;26.40;90.10
20726;DHT22;10524;48.132;8.518;2022-07-09T14:52:02;26.30;90.50
20726;DHT22;10524;48.132;8.518;2022-07-09T14:54:28;26.30;90.40
20726;DHT22;10524;48.132;8.518;2022-07-09T14:56:53;26.70;90.30
20726;DHT22;10524;48.132;8.518;2022-07-09T14:59:19;27.20;90.40
20726;DHT22;10524;48.132;8.518;2022-07-09T15:01:48;27.10;90.40
20726;DHT22;10524;48.132;8.518;2022-07-09T15:04:14;27.60;90.10
20726;DHT22;10524;48.132;8.518;2022-07-09T15:06:41;28.10;89.90
20726;DHT22;10524;48.132;8.518;2022-07-09T15:09:06;27.80;89.20
20726;DHT22;10524;48.132;8.518;2022-07-09T15:11:32;27.70;89.80
20726;DHT22;10524;48.132;8.518;2022-07-09T15:13:59;27.60;90.10
20726;DHT22;10524;48.132;8.518;2022-07-09T15:16:25;27.00;91.00
20726;DHT22;10524;48.132;8.518;2022-07-09T15:18:53;27.00;90.90
20726;DHT22;10524;48.132;8.518;2022-07-09T15:21:20;27.00;91.10
20726;DHT22;10524;48.132;8.518;2022-07-09T15:23:46;27.20;90.70
20726;DHT22;10524;48.132;8.518;2022-07-09T15:26:11;26.70;91.50
20726;DHT22;10524;48.132;8.518;2022-07-09T15:28:37;26.50;91.70
20726;DHT22;10524;48.132;8.518;2022-07-09T15:31:04;26.90;91.40
20726;DHT22;10524;48.132;8.518;2022-07-09T15:33:30;27.40;90.90
20726;DHT22;10524;48.132;8.518;2022-07-09T15:35:56;27.40;91.20
20726;DHT22;10524;48.132;8.518;2022-07-09T15:38:22;27.50;91.00
20726;DHT22;10524;48.132;8.518;2022-07-09T15:40:48;26.60;92.00